sensor_id;sensor_type;location;lat;lon;timestamp;pressure;altitude;pressure_sealevel;temperature;humidity
10948;BME280;5526;42.070;24.752;2023-03-04T00:02:25;99092.63;;;7.61;100.00
10948;BME280;5526;42.070;24.752;2023-03-04T00:04:52;99090.25;;;7.59;100.00
10948;BME280;5526;42.070;24.752;2023-03-04T00:07:19;99095.47;;;7.71;100.00
10948;BME280;5526;42.070;24.752;2023-03-04T00:09:46;99093.06;;;7.69;100.00
10948;BME280;5526;42.070;24.752;2023-03-04T00:12:14;99088.38;;;7.71;100.00
10948;BME280;5526;42.070;24.752;2023-03-04T00:14:41;99074.75;;;7.69;100.00
10948;BME280;5526;42.070;24.752;2023-03-04T00:17:08;99075.06;;;7.73;100.00
10948;BME280;5526;42.070;24.752;2023-03-04T00:19:35;99073.47;;;7.72;100.00
10948;BME280;5526;42.070;24.752;2023-03-04T00:22:03;99068.69;;;7.69;100.00
10948;BME280;5526;42.070;24.752;2023-03-04T00:24:30;99069.81;;;7.73;100.00
10948;BME280;5526;42.070;24.752;2023-03-04T00:26:58;99077.44;;;7.74;100.00
10948;BME280;5526;42.070;24.752;2023-03-04T00:29:26;99072.44;;;7.73;100.00
10948;BME280;5526;42.070;24.752;2023-03-04T00:31:53;99084.84;;;7.77;100.00
10948;BME280;5526;42.070;24.752;2023-03-04T00:34:20;99088.19;;;7.61;100.00
10948;BME280;5526;42.070;24.752;2023-03-04T00:36:48;99075.56;;;7.58;100.00
10948;BME280;5526;42.070;24.752;2023-03-04T00:39:15;99081.94;;;7.62;100.00
10948;BME280;5526;42.070;24.752;2023-03-04T00:41:42;99096.28;;;7.60;100.00
10948;BME280;5526;42.070;24.752;2023-03-04T00:44:09;99090.81;;;7.61;100.00
10948;BME280;5526;42.070;24.752;2023-03-04T00:46:37;99096.59;;;7.63;100.00
10948;BME280;5526;42.070;24.752;2023-03-04T00:49:04;99085.00;;;7.59;100.00
10948;BME280;5526;42.070;24.752;2023-03-04T00:51:31;99094.56;;;7.65;100.00
10948;BME280;5526;42.070;24.752;2023-03-04T00:53:58;99090.34;;;7.64;100.00
10948;BME280;5526;42.070;24.752;2023-03-04T00:56:25;99069.28;;;7.59;100.00
10948;BME280;5526;42.070;24.752;2023-03-04T00:58:52;99087.03;;;7.69;100.00
10948;BME280;5526;42.070;24.752;2023-03-04T01:01:19;99081.56;;;7.70;100.00
10948;BME280;5526;42.070;24.752;2023-03-04T01:03:48;99086.34;;;7.73;100.00
10948;BME280;5526;42.070;24.752;2023-03-04T01:06:15;99085.75;;;7.71;100.00
10948;BME280;5526;42.070;24.752;2023-03-04T01:08:42;99078.47;;;7.73;100.00
10948;BME280;5526;42.070;24.752;2023-03-04T01:11:09;99077.75;;;7.78;100.00
10948;BME280;5526;42.070;24.752;2023-03-04T01:13:36;99082.53;;;7.81;100.00
10948;BME280;5526;42.070;24.752;2023-03-04T01:16:05;99075.16;;;7.78;100.00
10948;BME280;5526;42.070;24.752;2023-03-04T01:18:32;99083.59;;;7.80;100.00
10948;BME280;5526;42.070;24.752;2023-03-04T01:21:00;99067.50;;;7.76;100.00
10948;BME280;5526;42.070;24.752;2023-03-04T01:23:27;99070.81;;;7.83;100.00
10948;BME280;5526;42.070;24.752;2023-03-04T01:25:54;99080.50;;;7.83;100.00
10948;BME280;5526;42.070;24.752;2023-03-04T01:28:21;99076.38;;;7.87;100.00
10948;BME280;5526;42.070;24.752;2023-03-04T01:30:48;99071.94;;;7.87;100.00
10948;BME280;5526;42.070;24.752;2023-03-04T01:33:15;99069.53;;;7.86;100.00
10948;BME280;5526;42.070;24.752;2023-03-04T01:35:42;99080.69;;;7.93;100.00
10948;BME280;5526;42.070;24.752;2023-03-04T01:38:11;99065.75;;;7.93;100.00
10948;BME280;5526;42.070;24.752;2023-03-04T01:40:38;99064.63;;;7.89;100.00
10948;BME280;5526;42.070;24.752;2023-03-04T01:43:08;99066.22;;;7.90;100.00
10948;BME280;5526;42.070;24.752;2023-03-04T01:45:37;99062.03;;;7.89;100.00
10948;BME280;5526;42.070;24.752;2023-03-04T01:48:04;99045.72;;;7.87;100.00
10948;BME280;5526;42.070;24.752;2023-03-04T01:50:32;99048.53;;;7.97;100.00
10948;BME280;5526;42.070;24.752;2023-03-04T01:53:00;99047.97;;;7.95;100.00
10948;BME280;5526;42.070;24.752;2023-03-04T01:55:30;99059.56;;;7.99;100.00
10948;BME280;5526;42.070;24.752;2023-03-04T01:57:57;99049.75;;;8.06;100.00
10948;BME280;5526;42.070;24.752;2023-03-04T02:00:28;99048.00;;;8.12;100.00
10948;BME280;5526;42.070;24.752;2023-03-04T02:02:58;99052.94;;;8.08;100.00
10948;BME280;5526;42.070;24.752;2023-03-04T02:05:26;99062.16;;;8.11;100.00
10948;BME280;5526;42.070;24.752;2023-03-04T02:07:54;99053.72;;;8.09;100.00
10948;BME280;5526;42.070;24.752;2023-03-04T02:10:21;99027.13;;;8.00;100.00
10948;BME280;5526;42.070;24.752;2023-03-04T02:12:50;99037.22;;;8.08;100.00
10948;BME280;5526;42.070;24.752;2023-03-04T02:15:18;99041.88;;;8.06;100.00
10948;BME280;5526;42.070;24.752;2023-03-04T02:17:45;99042.44;;;8.08;100.00
10948;BME280;5526;42.070;24.752;2023-03-04T02:20:21;99039.91;;;8.13;100.00
10948;BME280;5526;42.070;24.752;2023-03-04T02:22:54;99039.84;;;8.08;100.00
10948;BME280;5526;42.070;24.752;2023-03-04T02:25:30;99032.06;;;8.13;100.00
10948;BME280;5526;42.070;24.752;2023-03-04T02:28:00;99031.47;;;8.11;100.00
10948;BME280;5526;42.070;24.752;2023-03-04T02:30:27;99022.25;;;8.09;100.00
10948;BME280;5526;42.070;24.752;2023-03-04T02:32:54;99027.91;;;8.17;100.00
10948;BME280;5526;42.070;24.752;2023-03-04T02:35:21;99015.28;;;8.14;100.00
10948;BME280;5526;42.070;24.752;2023-03-04T02:37:48;99019.81;;;8.19;100.00
10948;BME280;5526;42.070;24.752;2023-03-04T02:40:20;99009.69;;;8.22;100.00
10948;BME280;5526;42.070;24.752;2023-03-04T02:42:48;99011.59;;;8.27;100.00
10948;BME280;5526;42.070;24.752;2023-03-04T02:45:36;99005.56;;;8.26;100.00
10948;BME280;5526;42.070;24.752;2023-03-04T02:48:06;99006.47;;;8.20;100.00
10948;BME280;5526;42.070;24.752;2023-03-04T02:50:35;99009.91;;;8.21;100.00
10948;BME280;5526;42.070;24.752;2023-03-04T02:53:03;99015.13;;;8.04;100.00
10948;BME280;5526;42.070;24.752;2023-03-04T02:55:31;99005.25;;;7.95;100.00
10948;BME280;5526;42.070;24.752;2023-03-04T02:57:58;99020.38;;;8.04;100.00
10948;BME280;5526;42.070;24.752;2023-03-04T03:00:26;99028.78;;;8.06;100.00
10948;BME280;5526;42.070;24.752;2023-03-04T03:02:54;99034.88;;;7.95;100.00
10948;BME280;5526;42.070;24.752;2023-03-04T03:05:23;99043.06;;;7.31;100.00
10948;BME280;5526;42.070;24.752;2023-03-04T03:07:51;99047.75;;;7.18;100.00
10948;BME280;5526;42.070;24.752;2023-03-04T03:10:19;99057.78;;;7.21;100.00
10948;BME280;5526;42.070;24.752;2023-03-04T03:12:46;99054.44;;;7.25;100.00
10948;BME280;5526;42.070;24.752;2023-03-04T03:15:13;99054.34;;;7.32;100.00
10948;BME280;5526;42.070;24.752;2023-03-04T03:17:41;99056.03;;;7.38;100.00
10948;BME280;5526;42.070;24.752;2023-03-04T03:20:11;99059.31;;;7.33;100.00
10948;BME280;5526;42.070;24.752;2023-03-04T03:22:38;99057.06;;;7.25;100.00
10948;BME280;5526;42.070;24.752;2023-03-04T03:25:06;99063.56;;;7.34;100.00
10948;BME280;5526;42.070;24.752;2023-03-04T03:27:33;99054.81;;;7.29;100.00
10948;BME280;5526;42.070;24.752;2023-03-04T03:30:01;99040.22;;;7.21;100.00
10948;BME280;5526;42.070;24.752;2023-03-04T03:32:28;99050.03;;;7.26;100.00
10948;BME280;5526;42.070;24.752;2023-03-04T03:34:55;99047.72;;;7.29;100.00
10948;BME280;5526;42.070;24.752;2023-03-04T03:37:23;99049.34;;;7.30;100.00
10948;BME280;5526;42.070;24.752;2023-03-04T03:39:50;99044.56;;;7.27;100.00
10948;BME280;5526;42.070;24.752;2023-03-04T03:42:18;99042.50;;;7.29;100.00
10948;BME280;5526;42.070;24.752;2023-03-04T03:44:45;99043.75;;;7.27;100.00
10948;BME280;5526;42.070;24.752;2023-03-04T03:47:12;99039.41;;;7.32;100.00
10948;BME280;5526;42.070;24.752;2023-03-04T03:49:39;99035.22;;;7.31;100.00
10948;BME280;5526;42.070;24.752;2023-03-04T03:52:06;99035.31;;;7.36;100.00
10948;BME280;5526;42.070;24.752;2023-03-04T03:54:35;99035.88;;;7.38;100.00
10948;BME280;5526;42.070;24.752;2023-03-04T03:57:02;99032.47;;;7.38;100.00
10948;BME280;5526;42.070;24.752;2023-03-04T03:59:29;99032.56;;;7.43;100.00
10948;BME280;5526;42.070;24.752;2023-03-04T04:01:56;99040.91;;;7.28;100.00
10948;BME280;5526;42.070;24.752;2023-03-04T04:04:23;99033.88;;;7.17;100.00
10948;BME280;5526;42.070;24.752;2023-03-04T04:06:50;99037.19;;;7.01;100.00
10948;BME280;5526;42.070;24.752;2023-03-04T04:09:18;99039.59;;;6.68;100.00
10948;BME280;5526;42.070;24.752;2023-03-04T04:11:46;99046.41;;;6.58;100.00
10948;BME280;5526;42.070;24.752;2023-03-04T04:14:13;99051.50;;;6.53;100.00
10948;BME280;5526;42.070;24.752;2023-03-04T04:16:40;99045.72;;;6.62;100.00
10948;BME280;5526;42.070;24.752;2023-03-04T04:19:10;99040.75;;;6.72;100.00
10948;BME280;5526;42.070;24.752;2023-03-04T04:21:39;99036.97;;;6.68;100.00
10948;BME280;5526;42.070;24.752;2023-03-04T04:24:07;99050.75;;;6.75;100.00
10948;BME280;5526;42.070;24.752;2023-03-04T04:26:34;99047.88;;;6.77;100.00
10948;BME280;5526;42.070;24.752;2023-03-04T04:29:02;99054.50;;;6.79;100.00
10948;BME280;5526;42.070;24.752;2023-03-04T04:31:29;99053.09;;;6.77;100.00
10948;BME280;5526;42.070;24.752;2023-03-04T04:33:56;99056.44;;;6.72;100.00
10948;BME280;5526;42.070;24.752;2023-03-04T04:36:23;99053.44;;;6.69;100.00
10948;BME280;5526;42.070;24.752;2023-03-04T04:38:50;99058.94;;;6.67;100.00
10948;BME280;5526;42.070;24.752;2023-03-04T04:41:19;99049.25;;;6.68;100.00
10948;BME280;5526;42.070;24.752;2023-03-04T04:43:47;99050.50;;;6.65;100.00
10948;BME280;5526;42.070;24.752;2023-03-04T04:46:15;99054.69;;;6.66;100.00
10948;BME280;5526;42.070;24.752;2023-03-04T04:48:43;99045.88;;;6.67;100.00
10948;BME280;5526;42.070;24.752;2023-03-04T04:51:10;99049.63;;;6.71;100.00
10948;BME280;5526;42.070;24.752;2023-03-04T04:53:37;99055.97;;;6.75;100.00
10948;BME280;5526;42.070;24.752;2023-03-04T04:56:09;99058.69;;;6.80;100.00
10948;BME280;5526;42.070;24.752;2023-03-04T04:58:36;99060.19;;;6.76;100.00
10948;BME280;5526;42.070;24.752;2023-03-04T05:01:04;99062.31;;;6.68;100.00
10948;BME280;5526;42.070;24.752;2023-03-04T05:03:33;99062.53;;;6.66;100.00
10948;BME280;5526;42.070;24.752;2023-03-04T05:06:01;99060.75;;;6.67;100.00
10948;BME280;5526;42.070;24.752;2023-03-04T05:08:28;99066.63;;;6.62;100.00
10948;BME280;5526;42.070;24.752;2023-03-04T05:10:55;99078.72;;;6.63;100.00
10948;BME280;5526;42.070;24.752;2023-03-04T05:13:22;99073.94;;;6.60;100.00
10948;BME280;5526;42.070;24.752;2023-03-04T05:15:50;99079.00;;;6.55;100.00
10948;BME280;5526;42.070;24.752;2023-03-04T05:18:18;99084.56;;;6.47;100.00
10948;BME280;5526;42.070;24.752;2023-03-04T05:20:50;99082.78;;;6.59;100.00
10948;BME280;5526;42.070;24.752;2023-03-04T05:23:17;99088.00;;;6.59;100.00
10948;BME280;5526;42.070;24.752;2023-03-04T05:25:45;99089.94;;;6.64;100.00
10948;BME280;5526;42.070;24.752;2023-03-04T05:28:12;99089.28;;;6.68;100.00
10948;BME280;5526;42.070;24.752;2023-03-04T05:30:40;99071.66;;;6.64;100.00
10948;BME280;5526;42.070;24.752;2023-03-04T05:33:08;99082.31;;;6.62;100.00
10948;BME280;5526;42.070;24.752;2023-03-04T05:35:35;99085.38;;;6.59;100.00
10948;BME280;5526;42.070;24.752;2023-03-04T05:38:06;99083.94;;;6.63;100.00
10948;BME280;5526;42.070;24.752;2023-03-04T05:40:33;99086.78;;;6.62;100.00
10948;BME280;5526;42.070;24.752;2023-03-04T05:43:00;99088.88;;;6.30;100.00
10948;BME280;5526;42.070;24.752;2023-03-04T05:45:27;99082.31;;;6.51;100.00
10948;BME280;5526;42.070;24.752;2023-03-04T05:47:54;99085.09;;;6.67;100.00
10948;BME280;5526;42.070;24.752;2023-03-04T05:50:22;99083.28;;;6.79;100.00
10948;BME280;5526;42.070;24.752;2023-03-04T05:52:49;99080.75;;;6.84;100.00
10948;BME280;5526;42.070;24.752;2023-03-04T05:55:18;99088.72;;;6.89;100.00
10948;BME280;5526;42.070;24.752;2023-03-04T05:57:46;99087.34;;;6.98;100.00
10948;BME280;5526;42.070;24.752;2023-03-04T06:00:17;99076.66;;;6.77;100.00
10948;BME280;5526;42.070;24.752;2023-03-04T06:02:44;99079.94;;;6.61;100.00
10948;BME280;5526;42.070;24.752;2023-03-04T06:05:12;99092.56;;;6.52;100.00
10948;BME280;5526;42.070;24.752;2023-03-04T06:07:39;99091.41;;;6.48;100.00
10948;BME280;5526;42.070;24.752;2023-03-04T06:10:08;99088.22;;;6.46;100.00
10948;BME280;5526;42.070;24.752;2023-03-04T06:12:37;99089.03;;;6.58;100.00
10948;BME280;5526;42.070;24.752;2023-03-04T06:15:05;99087.91;;;6.66;100.00
10948;BME280;5526;42.070;24.752;2023-03-04T06:17:35;99090.97;;;6.74;100.00
10948;BME280;5526;42.070;24.752;2023-03-04T06:20:02;99097.69;;;6.93;100.00
10948;BME280;5526;42.070;24.752;2023-03-04T06:22:30;99094.72;;;6.78;100.00
10948;BME280;5526;42.070;24.752;2023-03-04T06:24:57;99098.94;;;6.68;100.00
10948;BME280;5526;42.070;24.752;2023-03-04T06:27:24;99104.53;;;6.71;100.00
10948;BME280;5526;42.070;24.752;2023-03-04T06:29:53;99108.63;;;6.67;100.00
10948;BME280;5526;42.070;24.752;2023-03-04T06:32:20;99104.34;;;6.43;100.00
10948;BME280;5526;42.070;24.752;2023-03-04T06:34:47;99115.19;;;6.17;100.00
10948;BME280;5526;42.070;24.752;2023-03-04T06:37:14;99120.13;;;6.07;100.00
10948;BME280;5526;42.070;24.752;2023-03-04T06:39:41;99123.19;;;6.04;100.00
10948;BME280;5526;42.070;24.752;2023-03-04T06:42:08;99132.31;;;6.13;100.00
10948;BME280;5526;42.070;24.752;2023-03-04T06:44:36;99125.19;;;6.20;100.00
10948;BME280;5526;42.070;24.752;2023-03-04T06:47:04;99124.13;;;6.10;100.00
10948;BME280;5526;42.070;24.752;2023-03-04T06:49:31;99126.94;;;6.08;100.00
10948;BME280;5526;42.070;24.752;2023-03-04T06:51:59;99135.28;;;6.17;100.00
10948;BME280;5526;42.070;24.752;2023-03-04T06:54:26;99128.09;;;6.12;100.00
10948;BME280;5526;42.070;24.752;2023-03-04T06:56:53;99131.19;;;5.91;100.00
10948;BME280;5526;42.070;24.752;2023-03-04T06:59:20;99140.41;;;5.76;100.00
10948;BME280;5526;42.070;24.752;2023-03-04T07:01:47;99132.56;;;5.76;100.00
10948;BME280;5526;42.070;24.752;2023-03-04T07:04:15;99141.03;;;6.07;100.00
10948;BME280;5526;42.070;24.752;2023-03-04T07:06:43;99135.91;;;6.30;100.00
10948;BME280;5526;42.070;24.752;2023-03-04T07:09:10;99136.34;;;6.27;100.00
10948;BME280;5526;42.070;24.752;2023-03-04T07:11:37;99132.16;;;6.38;100.00
10948;BME280;5526;42.070;24.752;2023-03-04T07:14:04;99130.97;;;6.52;100.00
10948;BME280;5526;42.070;24.752;2023-03-04T07:16:31;99140.28;;;6.48;100.00
10948;BME280;5526;42.070;24.752;2023-03-04T07:18:58;99131.31;;;6.55;100.00
10948;BME280;5526;42.070;24.752;2023-03-04T07:21:27;99142.13;;;6.70;100.00
10948;BME280;5526;42.070;24.752;2023-03-04T07:23:55;99133.53;;;6.81;100.00
10948;BME280;5526;42.070;24.752;2023-03-04T07:26:22;99135.59;;;6.79;100.00
10948;BME280;5526;42.070;24.752;2023-03-04T07:28:49;99140.22;;;6.66;100.00
10948;BME280;5526;42.070;24.752;2023-03-04T07:31:22;99127.03;;;6.72;100.00
10948;BME280;5526;42.070;24.752;2023-03-04T07:33:49;99116.78;;;6.82;100.00
10948;BME280;5526;42.070;24.752;2023-03-04T07:36:18;99123.66;;;6.83;100.00
10948;BME280;5526;42.070;24.752;2023-03-04T07:38:48;99129.88;;;6.82;100.00
10948;BME280;5526;42.070;24.752;2023-03-04T07:41:16;99123.50;;;6.78;100.00
10948;BME280;5526;42.070;24.752;2023-03-04T07:43:43;99118.22;;;6.55;100.00
10948;BME280;5526;42.070;24.752;2023-03-04T07:46:11;99118.03;;;6.68;100.00
10948;BME280;5526;42.070;24.752;2023-03-04T07:48:38;99119.03;;;6.56;100.00
10948;BME280;5526;42.070;24.752;2023-03-04T07:51:07;99117.22;;;6.56;100.00
10948;BME280;5526;42.070;24.752;2023-03-04T07:53:35;99107.66;;;6.50;100.00
10948;BME280;5526;42.070;24.752;2023-03-04T07:56:05;99113.44;;;6.41;100.00
10948;BME280;5526;42.070;24.752;2023-03-04T07:58:32;99109.72;;;6.48;100.00
10948;BME280;5526;42.070;24.752;2023-03-04T08:00:59;99108.69;;;6.61;100.00
10948;BME280;5526;42.070;24.752;2023-03-04T08:03:27;99105.03;;;6.50;100.00
10948;BME280;5526;42.070;24.752;2023-03-04T08:05:55;99118.06;;;6.91;100.00
10948;BME280;5526;42.070;24.752;2023-03-04T08:08:22;99111.13;;;7.20;100.00
10948;BME280;5526;42.070;24.752;2023-03-04T08:10:49;99111.13;;;7.31;100.00
10948;BME280;5526;42.070;24.752;2023-03-04T08:13:18;99117.38;;;7.42;100.00
10948;BME280;5526;42.070;24.752;2023-03-04T08:15:45;99116.44;;;7.59;100.00
10948;BME280;5526;42.070;24.752;2023-03-04T08:18:12;99111.00;;;7.89;100.00
10948;BME280;5526;42.070;24.752;2023-03-04T08:20:41;99106.69;;;7.83;100.00
10948;BME280;5526;42.070;24.752;2023-03-04T08:23:09;99113.00;;;7.98;100.00
10948;BME280;5526;42.070;24.752;2023-03-04T08:25:38;99111.22;;;8.15;100.00
10948;BME280;5526;42.070;24.752;2023-03-04T08:28:05;99124.44;;;8.20;100.00
10948;BME280;5526;42.070;24.752;2023-03-04T08:30:34;99113.69;;;8.33;100.00
10948;BME280;5526;42.070;24.752;2023-03-04T08:33:02;99116.44;;;8.55;100.00
10948;BME280;5526;42.070;24.752;2023-03-04T08:35:29;99112.16;;;8.82;100.00
10948;BME280;5526;42.070;24.752;2023-03-04T08:37:57;99113.78;;;9.05;100.00
10948;BME280;5526;42.070;24.752;2023-03-04T08:40:24;99114.59;;;9.05;100.00
10948;BME280;5526;42.070;24.752;2023-03-04T08:42:52;99100.19;;;9.24;100.00
10948;BME280;5526;42.070;24.752;2023-03-04T08:45:19;99112.16;;;8.99;100.00
10948;BME280;5526;42.070;24.752;2023-03-04T08:47:47;99112.81;;;9.27;100.00
10948;BME280;5526;42.070;24.752;2023-03-04T08:50:14;99117.50;;;9.42;100.00
10948;BME280;5526;42.070;24.752;2023-03-04T08:52:42;99117.56;;;9.47;100.00
10948;BME280;5526;42.070;24.752;2023-03-04T08:55:09;99109.53;;;9.37;100.00
10948;BME280;5526;42.070;24.752;2023-03-04T08:57:36;99107.66;;;9.54;100.00
10948;BME280;5526;42.070;24.752;2023-03-04T09:00:04;99109.19;;;9.50;100.00
10948;BME280;5526;42.070;24.752;2023-03-04T09:02:31;99112.06;;;9.48;100.00
10948;BME280;5526;42.070;24.752;2023-03-04T09:05:00;99110.88;;;9.01;100.00
10948;BME280;5526;42.070;24.752;2023-03-04T09:07:27;99116.06;;;9.18;100.00
10948;BME280;5526;42.070;24.752;2023-03-04T09:09:54;99109.50;;;9.53;100.00
10948;BME280;5526;42.070;24.752;2023-03-04T09:12:20;99106.91;;;10.01;100.00
10948;BME280;5526;42.070;24.752;2023-03-04T09:14:48;99099.13;;;10.33;100.00
10948;BME280;5526;42.070;24.752;2023-03-04T09:17:15;99097.53;;;10.32;100.00
10948;BME280;5526;42.070;24.752;2023-03-04T09:19:42;99093.41;;;10.72;100.00
10948;BME280;5526;42.070;24.752;2023-03-04T09:22:10;99100.56;;;10.82;100.00
10948;BME280;5526;42.070;24.752;2023-03-04T09:24:37;99099.00;;;10.81;100.00
10948;BME280;5526;42.070;24.752;2023-03-04T09:27:04;99097.69;;;11.25;100.00
10948;BME280;5526;42.070;24.752;2023-03-04T09:29:32;99093.19;;;11.62;100.00
10948;BME280;5526;42.070;24.752;2023-03-04T09:31:59;99091.13;;;11.69;100.00
10948;BME280;5526;42.070;24.752;2023-03-04T09:34:26;99087.63;;;11.58;100.00
10948;BME280;5526;42.070;24.752;2023-03-04T09:36:53;99087.28;;;12.01;100.00
10948;BME280;5526;42.070;24.752;2023-03-04T09:39:21;99086.25;;;12.27;100.00
10948;BME280;5526;42.070;24.752;2023-03-04T09:41:51;99087.03;;;12.08;100.00
10948;BME280;5526;42.070;24.752;2023-03-04T09:44:23;99089.38;;;11.99;100.00
10948;BME280;5526;42.070;24.752;2023-03-04T09:46:52;99089.38;;;11.99;99.47
10948;BME280;5526;42.070;24.752;2023-03-04T09:49:21;99087.22;;;11.30;100.00
10948;BME280;5526;42.070;24.752;2023-03-04T09:51:56;99093.09;;;11.52;99.93
10948;BME280;5526;42.070;24.752;2023-03-04T09:54:35;99095.94;;;11.92;98.42
10948;BME280;5526;42.070;24.752;2023-03-04T09:57:17;99098.03;;;11.90;96.82
10948;BME280;5526;42.070;24.752;2023-03-04T09:59:52;99091.06;;;11.64;99.70
10948;BME280;5526;42.070;24.752;2023-03-04T10:02:25;99081.16;;;11.86;100.00
10948;BME280;5526;42.070;24.752;2023-03-04T10:04:58;99079.03;;;11.83;95.78
10948;BME280;5526;42.070;24.752;2023-03-04T10:07:30;99070.09;;;11.99;99.05
10948;BME280;5526;42.070;24.752;2023-03-04T10:10:04;99067.94;;;11.24;100.00
10948;BME280;5526;42.070;24.752;2023-03-04T10:12:36;99063.84;;;11.48;100.00
10948;BME280;5526;42.070;24.752;2023-03-04T10:15:13;99071.59;;;11.65;99.90
10948;BME280;5526;42.070;24.752;2023-03-04T10:17:46;99065.03;;;11.72;98.85
10948;BME280;5526;42.070;24.752;2023-03-04T10:20:19;99056.91;;;11.94;97.40
10948;BME280;5526;42.070;24.752;2023-03-04T10:22:48;99060.94;;;11.45;98.73
10948;BME280;5526;42.070;24.752;2023-03-04T10:25:20;99055.44;;;11.56;99.92
10948;BME280;5526;42.070;24.752;2023-03-04T10:27:50;99054.22;;;11.74;98.69
10948;BME280;5526;42.070;24.752;2023-03-04T10:30:31;99045.13;;;11.45;100.00
10948;BME280;5526;42.070;24.752;2023-03-04T10:33:08;99003.94;;;10.72;100.00
10948;BME280;5526;42.070;24.752;2023-03-04T10:35:37;99042.69;;;11.28;100.00
10948;BME280;5526;42.070;24.752;2023-03-04T10:38:05;99017.50;;;11.01;100.00
10948;BME280;5526;42.070;24.752;2023-03-04T10:40:39;99027.66;;;11.29;100.00
10948;BME280;5526;42.070;24.752;2023-03-04T10:43:13;99026.06;;;11.23;100.00
10948;BME280;5526;42.070;24.752;2023-03-04T10:45:41;99026.38;;;10.85;100.00
10948;BME280;5526;42.070;24.752;2023-03-04T10:48:18;99019.69;;;11.14;100.00
10948;BME280;5526;42.070;24.752;2023-03-04T10:50:46;99023.22;;;10.88;100.00
10948;BME280;5526;42.070;24.752;2023-03-04T10:53:35;99015.47;;;10.71;100.00
10948;BME280;5526;42.070;24.752;2023-03-04T10:56:31;99011.63;;;10.84;100.00
10948;BME280;5526;42.070;24.752;2023-03-04T10:59:24;99003.16;;;10.77;100.00
10948;BME280;5526;42.070;24.752;2023-03-04T11:01:55;99002.63;;;10.75;100.00
10948;BME280;5526;42.070;24.752;2023-03-04T11:04:24;98994.28;;;10.93;100.00
10948;BME280;5526;42.070;24.752;2023-03-04T11:06:52;98981.03;;;11.34;100.00
10948;BME280;5526;42.070;24.752;2023-03-04T11:09:23;98981.28;;;11.28;100.00
10948;BME280;5526;42.070;24.752;2023-03-04T11:11:53;98972.28;;;11.14;100.00
10948;BME280;5526;42.070;24.752;2023-03-04T11:14:22;98963.97;;;10.80;100.00
10948;BME280;5526;42.070;24.752;2023-03-04T11:16:55;98960.75;;;10.68;100.00
10948;BME280;5526;42.070;24.752;2023-03-04T11:19:25;98958.13;;;10.73;100.00
10948;BME280;5526;42.070;24.752;2023-03-04T11:21:55;98954.78;;;10.88;100.00
10948;BME280;5526;42.070;24.752;2023-03-04T11:24:24;98956.28;;;10.74;100.00
10948;BME280;5526;42.070;24.752;2023-03-04T11:26:58;98952.72;;;10.95;100.00
10948;BME280;5526;42.070;24.752;2023-03-04T11:29:30;98951.31;;;10.82;100.00
10948;BME280;5526;42.070;24.752;2023-03-04T11:32:05;98955.00;;;10.81;100.00
10948;BME280;5526;42.070;24.752;2023-03-04T11:34:38;98947.44;;;10.95;100.00
10948;BME280;5526;42.070;24.752;2023-03-04T11:37:11;98940.28;;;10.85;100.00
10948;BME280;5526;42.070;24.752;2023-03-04T11:39:46;98938.47;;;10.91;100.00
10948;BME280;5526;42.070;24.752;2023-03-04T11:42:23;98936.09;;;10.89;100.00
10948;BME280;5526;42.070;24.752;2023-03-04T11:44:54;98931.84;;;10.83;100.00
10948;BME280;5526;42.070;24.752;2023-03-04T11:47:41;98928.47;;;10.93;100.00
10948;BME280;5526;42.070;24.752;2023-03-04T11:50:21;98930.53;;;10.81;100.00
10948;BME280;5526;42.070;24.752;2023-03-04T11:53:19;98928.03;;;11.11;100.00
10948;BME280;5526;42.070;24.752;2023-03-04T11:55:57;98926.84;;;11.58;100.00
10948;BME280;5526;42.070;24.752;2023-03-04T12:01:28;98922.59;;;11.57;100.00
10948;BME280;5526;42.070;24.752;2023-03-04T12:04:14;98927.97;;;11.82;99.74
10948;BME280;5526;42.070;24.752;2023-03-04T12:06:51;98925.31;;;12.12;96.50
10948;BME280;5526;42.070;24.752;2023-03-04T12:09:41;98926.13;;;12.23;94.31
10948;BME280;5526;42.070;24.752;2023-03-04T12:12:24;98920.75;;;12.63;94.40
10948;BME280;5526;42.070;24.752;2023-03-04T12:15:01;98917.88;;;12.54;92.28
10948;BME280;5526;42.070;24.752;2023-03-04T12:17:43;98927.66;;;12.49;91.35
10948;BME280;5526;42.070;24.752;2023-03-04T12:20:48;98918.31;;;12.81;88.86
10948;BME280;5526;42.070;24.752;2023-03-04T12:23:32;98914.13;;;12.70;90.38
10948;BME280;5526;42.070;24.752;2023-03-04T12:26:06;98914.38;;;12.79;91.09
10948;BME280;5526;42.070;24.752;2023-03-04T12:28:43;98913.75;;;13.12;90.67
10948;BME280;5526;42.070;24.752;2023-03-04T12:31:42;98910.44;;;13.35;87.23
10948;BME280;5526;42.070;24.752;2023-03-04T12:34:37;98901.75;;;12.61;86.01
10948;BME280;5526;42.070;24.752;2023-03-04T12:37:24;98903.34;;;12.52;89.17
10948;BME280;5526;42.070;24.752;2023-03-04T12:42:57;98895.28;;;13.07;87.33
10948;BME280;5526;42.070;24.752;2023-03-04T12:45:29;98897.78;;;13.32;87.77
10948;BME280;5526;42.070;24.752;2023-03-04T12:48:04;98895.63;;;13.39;85.75
10948;BME280;5526;42.070;24.752;2023-03-04T12:50:41;98889.75;;;13.04;87.49
10948;BME280;5526;42.070;24.752;2023-03-04T12:53:20;98892.16;;;12.90;87.29
10948;BME280;5526;42.070;24.752;2023-03-04T12:55:55;98888.47;;;12.86;88.61
10948;BME280;5526;42.070;24.752;2023-03-04T12:58:25;98882.50;;;13.24;87.93
10948;BME280;5526;42.070;24.752;2023-03-04T13:00:58;98871.25;;;13.52;87.39
10948;BME280;5526;42.070;24.752;2023-03-04T13:03:37;98879.94;;;13.91;85.29
10948;BME280;5526;42.070;24.752;2023-03-04T13:06:13;98873.59;;;13.54;86.03
10948;BME280;5526;42.070;24.752;2023-03-04T13:08:52;98865.81;;;13.29;86.39
10948;BME280;5526;42.070;24.752;2023-03-04T13:14:30;98858.84;;;13.48;86.76
10948;BME280;5526;42.070;24.752;2023-03-04T13:16:58;98856.16;;;13.53;87.20
10948;BME280;5526;42.070;24.752;2023-03-04T13:19:45;98857.53;;;13.40;86.80
10948;BME280;5526;42.070;24.752;2023-03-04T13:22:32;98852.25;;;13.45;86.91